Time;durP1;ratioP1;P1;durP2;ratioP2;P2;SDS_P1;SDS_P2;PMS_P1;PMS_P2;Temp;Humidity;BMP_temperature;BMP_pressure;BME280_temperature;BME280_humidity;BME280_pressure;Samples;Min_cycle;Max_cycle;Signal;HPM_P1;HPM_P2
2023/11/09 00:01:21;;;;;;;18.08;13.15;;;;;;;;;;4993538;28;20363;-54
2023/11/09 00:03:46;;;;;;;17.27;11.40;;;;;;;;;;4993685;28;20030;-54
2023/11/09 00:06:12;;;;;;;12.90;9.70;;;;;;;;;;4993969;28;20041;-54
2023/11/09 00:08:42;;;;;;;17.73;11.35;;;;;;;;;;4994008;28;20506;-54
2023/11/09 00:11:08;;;;;;;13.38;9.73;;;;;;;;;;4993610;28;20042;-54
2023/11/09 00:13:33;;;;;;;17.15;9.52;;;;;;;;;;4993999;28;20117;-54
2023/11/09 00:15:59;;;;;;;23.42;14.07;;;;;;;;;;4994143;28;20097;-54
2023/11/09 00:18:25;;;;;;;43.97;23.30;;;;;;;;;;4993662;28;20052;-54
2023/11/09 00:20:51;;;;;;;26.25;16.83;;;;;;;;;;4993221;28;20035;-53
2023/11/09 00:23:17;;;;;;;48.80;25.65;;;;;;;;;;4993627;28;20037;-53
2023/11/09 00:25:43;;;;;;;37.60;22.77;;;;;;;;;;4995632;28;20038;-53
2023/11/09 00:28:08;;;;;;;28.65;16.48;;;;;;;;;;4979597;28;20037;-53
2023/11/09 00:30:34;;;;;;;18.67;12.40;;;;;;;;;;4979259;28;20115;-53
2023/11/09 00:32:59;;;;;;;20.05;14.30;;;;;;;;;;4979461;28;20038;-53
2023/11/09 00:35:25;;;;;;;19.65;12.70;;;;;;;;;;4980169;28;20117;-53
2023/11/09 00:37:50;;;;;;;20.10;13.25;;;;;;;;;;4996984;28;20034;-53
2023/11/09 00:40:16;;;;;;;21.13;12.75;;;;;;;;;;4997154;28;20160;-53
2023/11/09 00:42:41;;;;;;;24.67;14.40;;;;;;;;;;4979372;28;20092;-54
2023/11/09 00:45:07;;;;;;;19.38;13.15;;;;;;;;;;4996792;28;20500;-53
2023/11/09 00:47:32;;;;;;;16.98;10.55;;;;;;;;;;4997006;28;20026;-54
2023/11/09 00:49:58;;;;;;;16.73;10.05;;;;;;;;;;4979383;28;20394;-53
2023/11/09 00:52:24;;;;;;;16.85;9.65;;;;;;;;;;4996895;28;20022;-54
2023/11/09 00:54:51;;;;;;;9.98;8.18;;;;;;;;;;4996355;28;20403;-53
2023/11/09 00:57:16;;;;;;;13.05;8.32;;;;;;;;;;4997619;28;20014;-53
2023/11/09 00:59:46;;;;;;;11.60;7.82;;;;;;;;;;4978981;28;20104;-53
2023/11/09 01:02:12;;;;;;;9.70;7.35;;;;;;;;;;4996279;28;20038;-53
2023/11/09 01:04:37;;;;;;;13.40;8.20;;;;;;;;;;4978772;28;20032;-53
2023/11/09 01:07:04;;;;;;;12.45;7.63;;;;;;;;;;4996647;28;20077;-53
2023/11/09 01:09:30;;;;;;;12.82;7.88;;;;;;;;;;4996889;28;20455;-53
2023/11/09 01:11:55;;;;;;;10.13;7.40;;;;;;;;;;4995948;28;20041;-53
2023/11/09 01:14:20;;;;;;;11.07;6.97;;;;;;;;;;4978763;28;20470;-53
2023/11/09 01:16:46;;;;;;;9.00;6.88;;;;;;;;;;4996242;28;20057;-53
2023/11/09 01:19:11;;;;;;;8.85;6.60;;;;;;;;;;4996102;28;20027;-53
2023/11/09 01:21:37;;;;;;;11.30;6.50;;;;;;;;;;4996364;28;20053;-53
2023/11/09 01:24:02;;;;;;;14.73;7.70;;;;;;;;;;4996083;28;20026;-53
2023/11/09 01:26:28;;;;;;;8.85;6.60;;;;;;;;;;4962651;28;20034;-54
2023/11/09 01:28:53;;;;;;;14.75;7.40;;;;;;;;;;4995377;28;20034;-54
2023/11/09 01:31:19;;;;;;;11.55;7.32;;;;;;;;;;4996195;28;20077;-54
2023/11/09 01:33:44;;;;;;;8.82;6.25;;;;;;;;;;4979077;28;20089;-53
2023/11/09 01:36:13;;;;;;;10.27;6.63;;;;;;;;;;4994996;28;20027;-54
2023/11/09 01:38:38;;;;;;;9.77;6.07;;;;;;;;;;4995367;28;20101;-54
2023/11/09 01:41:06;;;;;;;8.73;5.80;;;;;;;;;;4978932;28;20378;-53
2023/11/09 01:43:32;;;;;;;8.90;6.25;;;;;;;;;;4978101;28;20037;-53
2023/11/09 01:45:57;;;;;;;9.70;6.32;;;;;;;;;;4995604;28;20421;-52
2023/11/09 01:48:23;;;;;;;8.23;6.18;;;;;;;;;;4996066;28;20366;-53
2023/11/09 01:50:50;;;;;;;8.60;6.10;;;;;;;;;;4995692;28;20437;-53
2023/11/09 01:53:15;;;;;;;9.02;6.13;;;;;;;;;;4995168;28;20034;-53
2023/11/09 01:55:41;;;;;;;8.65;5.82;;;;;;;;;;4995921;28;20364;-53
2023/11/09 01:58:07;;;;;;;10.73;5.90;;;;;;;;;;4977999;28;20478;-53
2023/11/09 02:00:32;;;;;;;8.63;5.97;;;;;;;;;;4977504;28;20037;-53
2023/11/09 02:02:59;;;;;;;10.02;5.78;;;;;;;;;;4977647;28;20026;-53
2023/11/09 02:05:25;;;;;;;8.65;5.22;;;;;;;;;;4977776;28;20049;-53
2023/11/09 02:07:52;;;;;;;11.23;5.93;;;;;;;;;;4978065;28;20474;-53
2023/11/09 02:10:19;;;;;;;9.85;5.60;;;;;;;;;;4995195;28;20026;-53
2023/11/09 02:12:44;;;;;;;9.05;5.70;;;;;;;;;;4978175;28;20045;-54
2023/11/09 02:15:09;;;;;;;9.63;6.82;;;;;;;;;;4977603;28;20038;-54
2023/11/09 02:17:35;;;;;;;10.45;6.15;;;;;;;;;;4978133;28;20054;-54
2023/11/09 02:20:02;;;;;;;11.75;6.65;;;;;;;;;;4977418;28;20030;-54
2023/11/09 02:22:28;;;;;;;11.50;6.45;;;;;;;;;;4977713;28;20406;-53
2023/11/09 02:24:54;;;;;;;11.05;7.13;;;;;;;;;;4977421;28;20130;-54
2023/11/09 02:27:20;;;;;;;15.65;8.25;;;;;;;;;;4977439;28;20022;-54
2023/11/09 02:29:45;;;;;;;10.30;6.88;;;;;;;;;;4995450;28;20083;-54
2023/11/09 02:32:11;;;;;;;12.05;7.20;;;;;;;;;;4977413;28;20053;-54
2023/11/09 02:34:39;;;;;;;9.32;6.60;;;;;;;;;;4995410;28;20045;-54
2023/11/09 02:37:09;;;;;;;9.27;6.00;;;;;;;;;;4976896;28;20485;-54
2023/11/09 02:39:35;;;;;;;11.32;6.20;;;;;;;;;;4994858;28;20046;-54
2023/11/09 02:42:00;;;;;;;9.30;5.75;;;;;;;;;;4994756;28;20033;-54
2023/11/09 02:44:26;;;;;;;12.35;6.13;;;;;;;;;;4961122;28;20422;-53
2023/11/09 02:46:52;;;;;;;8.82;5.68;;;;;;;;;;4977591;28;20026;-53
2023/11/09 02:49:17;;;;;;;12.35;6.22;;;;;;;;;;4994514;28;20033;-53
2023/11/09 02:51:42;;;;;;;9.30;5.50;;;;;;;;;;4994486;28;20382;-53
2023/11/09 02:54:08;;;;;;;8.45;5.45;;;;;;;;;;4994347;28;20446;-53
2023/11/09 02:56:33;;;;;;;10.98;6.22;;;;;;;;;;4976763;28;20526;-53
2023/11/09 02:58:58;;;;;;;10.75;6.40;;;;;;;;;;4994205;28;20114;-53
2023/11/09 03:01:24;;;;;;;17.83;9.00;;;;;;;;;;4994660;28;20393;-53
2023/11/09 03:03:52;;;;;;;17.13;11.05;;;;;;;;;;4994653;28;20085;-53
2023/11/09 03:06:19;;;;;;;14.40;9.00;;;;;;;;;;4994224;28;20486;-53
2023/11/09 03:08:44;;;;;;;13.32;8.45;;;;;;;;;;4994857;28;20038;-53
2023/11/09 03:11:09;;;;;;;12.88;8.40;;;;;;;;;;4994080;28;20531;-54
2023/11/09 03:13:39;;;;;;;9.70;6.38;;;;;;;;;;4977651;28;20037;-53
2023/11/09 03:16:06;;;;;;;7.97;5.65;;;;;;;;;;4994754;28;20017;-53
2023/11/09 03:18:31;;;;;;;10.55;5.60;;;;;;;;;;4994142;28;20034;-53
2023/11/09 03:20:57;;;;;;;7.30;5.43;;;;;;;;;;4994477;28;20033;-53
2023/11/09 03:23:23;;;;;;;8.30;5.63;;;;;;;;;;4960604;28;20030;-53
2023/11/09 03:25:49;;;;;;;10.85;6.43;;;;;;;;;;4994142;28;20035;-53
2023/11/09 03:28:14;;;;;;;9.10;5.93;;;;;;;;;;4994605;28;20021;-53
2023/11/09 03:30:39;;;;;;;8.40;5.63;;;;;;;;;;4976622;28;20056;-53
2023/11/09 03:33:05;;;;;;;12.25;7.03;;;;;;;;;;4994637;28;20065;-53
2023/11/09 03:35:30;;;;;;;8.18;5.28;;;;;;;;;;4993972;28;20022;-53
2023/11/09 03:37:56;;;;;;;12.95;7.57;;;;;;;;;;4993720;28;20394;-53
2023/11/09 03:40:21;;;;;;;10.88;6.97;;;;;;;;;;4994542;28;20031;-53
2023/11/09 03:42:46;;;;;;;9.70;6.32;;;;;;;;;;4994008;28;20475;-53
2023/11/09 03:45:12;;;;;;;7.63;5.60;;;;;;;;;;4993982;28;20041;-55
2023/11/09 03:47:39;;;;;;;10.07;5.68;;;;;;;;;;4976926;28;20390;-53
2023/11/09 03:50:04;;;;;;;9.73;5.80;;;;;;;;;;4976435;28;20371;-53
2023/11/09 03:52:30;;;;;;;7.93;5.63;;;;;;;;;;4994088;28;20033;-53
2023/11/09 03:54:55;;;;;;;9.18;6.03;;;;;;;;;;4994088;28;20125;-53
2023/11/09 03:57:21;;;;;;;8.60;5.50;;;;;;;;;;4994114;28;20027;-53
2023/11/09 03:59:46;;;;;;;8.88;5.80;;;;;;;;;;4994239;28;20023;-53
2023/11/09 04:02:12;;;;;;;9.18;6.40;;;;;;;;;;4997555;28;20437;-53
2023/11/09 04:04:38;;;;;;;10.15;7.20;;;;;;;;;;4998312;28;20026;-53
2023/11/09 04:07:09;;;;;;;8.35;6.55;;;;;;;;;;4979897;28;20085;-53
2023/11/09 04:09:35;;;;;;;14.30;7.93;;;;;;;;;;4997542;28;20093;-53
2023/11/09 04:12:00;;;;;;;9.93;7.13;;;;;;;;;;4997927;28;20014;-53
2023/11/09 04:14:25;;;;;;;7.28;5.90;;;;;;;;;;4997666;28;20034;-53
2023/11/09 04:16:51;;;;;;;9.73;6.07;;;;;;;;;;4997247;28;20386;-53
2023/11/09 04:19:19;;;;;;;10.18;6.88;;;;;;;;;;4997411;28;20015;-53
2023/11/09 04:21:45;;;;;;;11.95;6.40;;;;;;;;;;4997307;28;20093;-54
2023/11/09 04:24:11;;;;;;;9.73;6.45;;;;;;;;;;4979699;28;20030;-54
2023/11/09 04:26:36;;;;;;;9.68;6.43;;;;;;;;;;4997212;28;20065;-54
2023/11/09 04:29:03;;;;;;;8.52;6.03;;;;;;;;;;4996899;28;20042;-59
2023/11/09 04:31:30;;;;;;;7.60;5.35;;;;;;;;;;4964148;28;20022;-59
2023/11/09 04:34:02;;;;;;;10.32;5.47;;;;;;;;;;4997200;28;20038;-53
2023/11/09 04:36:27;;;;;;;10.48;6.28;;;;;;;;;;4996324;28;20522;-59
2023/11/09 04:38:53;;;;;;;7.95;5.78;;;;;;;;;;4996907;28;20038;-59
2023/11/09 04:41:18;;;;;;;9.15;5.40;;;;;;;;;;4996661;28;20038;-59
2023/11/09 04:43:44;;;;;;;10.73;4.75;;;;;;;;;;4997071;28;20026;-59
2023/11/09 04:46:11;;;;;;;7.45;5.10;;;;;;;;;;4996688;28;20027;-59
2023/11/09 04:48:44;;;;;;;8.05;5.38;;;;;;;;;;4997252;28;20038;-59
2023/11/09 04:51:31;;;;;;;10.32;5.20;;;;;;;;;;5010040;28;20109;-59
2023/11/09 04:54:06;;;;;;;7.60;5.93;;;;;;;;;;5015103;28;20129;-59
2023/11/09 04:56:38;;;;;;;9.10;4.63;;;;;;;;;;5015099;28;20099;-59
2023/11/09 05:06:48;;;;;;;7.20;4.38;;;;;;;;;;5016168;28;20425;-59
2023/11/09 05:07:18;;;;;;;7.38;5.15;;;;;;;;;;5015017;28;20029;-59
2023/11/09 05:09:46;;;;;;;8.15;5.45;;;;;;;;;;5014963;28;20113;-59
2023/11/09 05:12:12;;;;;;;8.95;6.45;;;;;;;;;;5014417;28;20125;-59
2023/11/09 05:14:38;;;;;;;6.72;5.60;;;;;;;;;;5014902;28;20438;-59
2023/11/09 05:17:03;;;;;;;7.07;5.20;;;;;;;;;;5014665;28;20029;-63
2023/11/09 05:19:28;;;;;;;7.72;5.55;;;;;;;;;;5014769;28;20343;-59
2023/11/09 05:21:54;;;;;;;6.85;5.90;;;;;;;;;;5014923;28;20484;-60
2023/11/09 05:24:19;;;;;;;9.93;6.35;;;;;;;;;;5015707;28;20025;-60
2023/11/09 05:26:50;;;;;;;9.02;4.97;;;;;;;;;;5016064;28;20022;-60
2023/11/09 05:29:15;;;;;;;7.03;4.57;;;;;;;;;;5015599;28;20474;-60
2023/11/09 05:31:42;;;;;;;7.20;5.60;;;;;;;;;;5016060;28;20030;-59
2023/11/09 05:34:08;;;;;;;8.55;4.97;;;;;;;;;;5015504;28;20022;-60
2023/11/09 05:36:34;;;;;;;5.55;4.25;;;;;;;;;;4998119;28;20048;-60
2023/11/09 05:39:00;;;;;;;8.35;4.30;;;;;;;;;;5015356;28;20046;-60
2023/11/09 05:41:26;;;;;;;4.95;4.20;;;;;;;;;;5015891;28;20439;-59
2023/11/09 05:43:51;;;;;;;5.43;4.10;;;;;;;;;;5015853;28;20038;-60
2023/11/09 05:46:19;;;;;;;5.50;4.05;;;;;;;;;;5016005;28;20068;-59
2023/11/09 05:48:44;;;;;;;6.28;4.85;;;;;;;;;;4998012;28;20038;-59
2023/11/09 05:51:09;;;;;;;12.75;7.03;;;;;;;;;;5015649;28;20025;-59
2023/11/09 05:53:35;;;;;;;8.23;5.30;;;;;;;;;;5015310;28;20026;-60
2023/11/09 05:56:00;;;;;;;7.53;4.57;;;;;;;;;;4998094;28;20044;-59
2023/11/09 05:58:26;;;;;;;6.57;4.70;;;;;;;;;;4997450;28;20038;-61
2023/11/09 06:00:52;;;;;;;7.05;4.20;;;;;;;;;;5015295;28;20065;-60
2023/11/09 06:03:17;;;;;;;6.53;4.25;;;;;;;;;;5015366;28;20177;-60
2023/11/09 06:05:43;;;;;;;5.95;3.63;;;;;;;;;;5015172;28;20033;-60
2023/11/09 06:08:10;;;;;;;4.68;3.33;;;;;;;;;;5015548;28;20025;-60
2023/11/09 06:10:37;;;;;;;6.75;3.47;;;;;;;;;;5014466;28;20076;-60
2023/11/09 06:13:03;;;;;;;7.60;3.75;;;;;;;;;;5015018;28;20129;-60
2023/11/09 06:15:29;;;;;;;5.50;3.80;;;;;;;;;;4996908;28;20033;-60
2023/11/09 06:17:55;;;;;;;4.97;3.58;;;;;;;;;;5015051;28;20034;-60
2023/11/09 06:20:21;;;;;;;5.00;3.65;;;;;;;;;;5014961;28;20100;-60
2023/11/09 06:22:48;;;;;;;6.85;4.35;;;;;;;;;;5014182;28;20056;-59
2023/11/09 06:25:14;;;;;;;6.43;4.47;;;;;;;;;;5014824;28;20038;-60
2023/11/09 06:27:40;;;;;;;4.70;3.55;;;;;;;;;;5015205;28;20026;-60
2023/11/09 06:30:07;;;;;;;7.32;4.47;;;;;;;;;;5014690;28;20085;-60
2023/11/09 06:32:33;;;;;;;8.35;5.10;;;;;;;;;;5014798;28;20030;-60
2023/11/09 06:35:03;;;;;;;11.50;6.10;;;;;;;;;;5014749;28;20038;-60
2023/11/09 06:37:30;;;;;;;9.75;5.80;;;;;;;;;;5014537;28;20462;-60
2023/11/09 06:39:58;;;;;;;14.63;6.03;;;;;;;;;;5014606;28;20486;-60
2023/11/09 06:42:24;;;;;;;9.88;6.45;;;;;;;;;;5014275;28;20076;-60
2023/11/09 06:44:49;;;;;;;10.60;6.60;;;;;;;;;;5014551;28;20417;-60
2023/11/09 06:47:15;;;;;;;13.38;6.07;;;;;;;;;;5014190;28;20034;-56
2023/11/09 06:49:42;;;;;;;10.98;6.57;;;;;;;;;;5031918;23;20049;-60
2023/11/09 06:52:17;;;;;;;7.78;6.10;;;;;;;;;;5033506;23;20056;-56
2023/11/09 06:54:43;;;;;;;8.27;5.68;;;;;;;;;;5022739;23;20108;-56
2023/11/09 07:00:06;;;;;;;13.15;6.47;;;;;;;;;;4936029;29;20074;-60
2023/11/09 07:02:32;;;;;;;10.85;7.03;;;;;;;;;;4936542;29;20102;-60
2023/11/09 07:04:58;;;;;;;8.77;6.45;;;;;;;;;;4935838;29;20560;-60
2023/11/09 07:07:23;;;;;;;9.20;6.53;;;;;;;;;;4936742;29;20480;-60
2023/11/09 07:09:48;;;;;;;9.90;6.32;;;;;;;;;;4936758;29;20027;-60
2023/11/09 07:12:14;;;;;;;8.07;6.15;;;;;;;;;;4936384;29;20436;-60
2023/11/09 07:14:40;;;;;;;8.48;6.32;;;;;;;;;;4936350;29;20059;-60
2023/11/09 07:17:06;;;;;;;10.68;6.75;;;;;;;;;;4936848;29;20063;-60
2023/11/09 07:19:33;;;;;;;7.40;5.07;;;;;;;;;;4936551;29;20043;-60
2023/11/09 07:22:00;;;;;;;8.45;5.47;;;;;;;;;;4936334;29;20039;-60
2023/11/09 07:24:27;;;;;;;7.18;5.10;;;;;;;;;;4936573;29;20376;-60
2023/11/09 07:26:53;;;;;;;7.25;5.60;;;;;;;;;;4951054;29;20028;-60
2023/11/09 07:29:19;;;;;;;8.23;4.90;;;;;;;;;;4951442;29;20024;-60
2023/11/09 07:31:44;;;;;;;7.57;5.22;;;;;;;;;;4936793;29;20118;-60
2023/11/09 07:34:10;;;;;;;8.38;5.78;;;;;;;;;;4937810;29;20055;-60
2023/11/09 07:36:35;;;;;;;7.38;5.60;;;;;;;;;;4940042;29;20115;-60
2023/11/09 07:39:03;;;;;;;8.85;6.63;;;;;;;;;;4940361;29;20485;-60
2023/11/09 07:41:29;;;;;;;9.85;8.35;;;;;;;;;;4940594;29;20023;-60
2023/11/09 07:43:55;;;;;;;9.30;7.03;;;;;;;;;;4938735;29;20054;-60
2023/11/09 07:46:20;;;;;;;9.98;6.03;;;;;;;;;;4940271;29;20054;-60
2023/11/09 07:48:46;;;;;;;7.97;5.60;;;;;;;;;;4940205;29;20027;-60
2023/11/09 07:51:13;;;;;;;5.60;3.88;;;;;;;;;;4954653;29;20499;-60
2023/11/09 07:53:38;;;;;;;5.90;3.70;;;;;;;;;;4938586;29;20476;-60
2023/11/09 07:56:04;;;;;;;4.22;3.20;;;;;;;;;;4939996;29;20118;-60
2023/11/09 07:58:29;;;;;;;4.13;2.55;;;;;;;;;;4939583;29;20107;-60
2023/11/09 08:00:57;;;;;;;2.67;2.33;;;;;;;;;;4939705;29;20388;-60
2023/11/09 08:03:23;;;;;;;3.00;2.38;;;;;;;;;;4939928;29;20156;-60
2023/11/09 08:05:51;;;;;;;2.53;2.08;;;;;;;;;;4939037;29;20028;-60
2023/11/09 08:08:17;;;;;;;2.53;1.70;;;;;;;;;;4938440;29;20035;-60
2023/11/09 08:10:45;;;;;;;2.10;1.60;;;;;;;;;;4939833;29;20047;-60
2023/11/09 08:13:17;;;;;;;1.40;1.30;;;;;;;;;;4953426;29;20063;-60
2023/11/09 08:15:46;;;;;;;2.90;1.45;;;;;;;;;;4939649;29;20123;-60
2023/11/09 08:18:11;;;;;;;1.98;1.75;;;;;;;;;;4939930;29;20050;-60
2023/11/09 09:20:32;;;;;;;1.30;1.20;;;;;;;;;;5026868;28;20037;-69
2023/11/09 09:22:59;;;;;;;1.73;1.30;;;;;;;;;;5034546;28;20064;-70
2023/11/09 09:25:25;;;;;;;1.58;1.20;;;;;;;;;;5035674;28;20427;-69
2023/11/09 09:27:51;;;;;;;1.40;1.30;;;;;;;;;;5017892;28;20069;-69
2023/11/09 09:30:21;;;;;;;2.08;1.40;;;;;;;;;;5035341;28;20033;-70
2023/11/09 09:32:47;;;;;;;1.58;1.05;;;;;;;;;;5035296;28;20037;-69
2023/11/09 09:35:13;;;;;;;1.90;1.20;;;;;;;;;;5035098;28;20049;-69
2023/11/09 09:37:39;;;;;;;1.45;1.20;;;;;;;;;;5050589;28;20041;-69
2023/11/09 09:40:17;;;;;;;1.70;1.30;;;;;;;;;;5035170;28;20416;-69
2023/11/09 09:42:46;;;;;;;1.73;1.30;;;;;;;;;;5050511;28;20469;-69
2023/11/09 09:45:33;;;;;;;2.20;1.13;;;;;;;;;;5034990;28;20025;-69
2023/11/09 09:48:00;;;;;;;0.85;0.85;;;;;;;;;;5035100;28;20041;-69
2023/11/09 09:50:27;;;;;;;2.28;1.30;;;;;;;;;;5034988;28;20037;-70
2023/11/09 09:52:53;;;;;;;2.63;1.10;;;;;;;;;;5034895;28;20468;-69
2023/11/09 09:55:21;;;;;;;1.55;1.02;;;;;;;;;;5017024;28;20071;-69
2023/11/09 09:57:47;;;;;;;1.20;1.10;;;;;;;;;;5033730;28;20063;-70
2023/11/09 10:00:23;;;;;;;0.98;0.85;;;;;;;;;;5034705;28;20071;-71
2023/11/09 10:02:49;;;;;;;0.90;0.90;;;;;;;;;;5013886;23;20058;-70
2023/11/09 10:05:15;;;;;;;2.92;0.90;;;;;;;;;;4974616;28;20034;-69
2023/11/09 10:07:56;;;;;;;0.82;0.75;;;;;;;;;;4975799;28;20126;-70
2023/11/09 10:10:21;;;;;;;1.20;1.10;;;;;;;;;;4975833;28;20042;-69
2023/11/09 10:12:47;;;;;;;1.25;1.00;;;;;;;;;;4975822;28;20081;-69
2023/11/09 10:15:15;;;;;;;1.48;1.10;;;;;;;;;;4975617;28;20078;-69
2023/11/09 10:17:40;;;;;;;0.85;0.85;;;;;;;;;;4975644;28;20039;-69
2023/11/09 10:20:11;;;;;;;1.10;1.00;;;;;;;;;;4975637;28;20102;-69
2023/11/09 10:22:37;;;;;;;1.55;1.00;;;;;;;;;;4975548;28;20076;-69
2023/11/09 10:25:03;;;;;;;1.38;1.00;;;;;;;;;;4975496;28;20422;-69
2023/11/09 10:27:30;;;;;;;3.17;1.30;;;;;;;;;;4975489;28;20054;-69
2023/11/09 10:29:55;;;;;;;1.20;1.02;;;;;;;;;;4975461;28;20061;-69
2023/11/09 10:32:22;;;;;;;3.17;1.58;;;;;;;;;;4975423;28;20474;-69
2023/11/09 10:34:50;;;;;;;3.75;1.15;;;;;;;;;;4975304;28;20046;-69
2023/11/09 10:37:16;;;;;;;1.70;1.45;;;;;;;;;;4974112;28;20018;-69
2023/11/09 10:39:46;;;;;;;1.92;1.42;;;;;;;;;;4975258;28;20034;-70
2023/11/09 10:42:13;;;;;;;3.80;1.55;;;;;;;;;;4975231;28;20110;-69
2023/11/09 10:44:42;;;;;;;3.90;1.20;;;;;;;;;;4975200;28;20027;-69
2023/11/09 10:47:08;;;;;;;2.38;1.48;;;;;;;;;;4975013;28;20033;-69
2023/11/09 10:49:35;;;;;;;2.33;1.38;;;;;;;;;;4975079;28;20035;-69
2023/11/09 10:52:01;;;;;;;1.58;1.35;;;;;;;;;;4975153;28;20023;-69
2023/11/09 10:54:27;;;;;;;1.77;1.48;;;;;;;;;;4975098;28;20042;-69
2023/11/09 10:56:56;;;;;;;1.50;1.20;;;;;;;;;;4975015;28;20037;-69
2023/11/09 10:59:24;;;;;;;1.42;1.33;;;;;;;;;;4957580;28;20054;-69
2023/11/09 11:01:53;;;;;;;2.55;1.27;;;;;;;;;;4973568;28;20042;-69
2023/11/09 11:04:25;;;;;;;1.13;1.02;;;;;;;;;;4974880;28;20073;-69
2023/11/09 11:06:56;;;;;;;2.63;1.17;;;;;;;;;;4974875;28;20026;-69
2023/11/09 11:09:26;;;;;;;1.77;1.20;;;;;;;;;;4974546;28;20169;-69
2023/11/09 11:12:01;;;;;;;2.22;1.17;;;;;;;;;;4974878;28;20161;-69
2023/11/09 11:14:28;;;;;;;1.95;1.48;;;;;;;;;;4974816;28;20039;-69
2023/11/09 11:16:53;;;;;;;2.67;1.60;;;;;;;;;;4974736;28;20489;-69
2023/11/09 11:19:34;;;;;;;2.33;1.25;;;;;;;;;;4973415;28;20027;-69
2023/11/09 11:21:59;;;;;;;;;;;;;;;;;;4975247;28;20038;-69
2023/11/09 11:24:40;;;;;;;1.60;1.48;;;;;;;;;;4973462;28;19917;-69
2023/11/09 11:27:16;;;;;;;3.42;1.60;;;;;;;;;;4974787;28;20058;-69
2023/11/09 11:29:42;;;;;;;1.90;1.35;;;;;;;;;;4974723;28;20058;-69
2023/11/09 11:32:09;;;;;;;2.78;1.10;;;;;;;;;;4973357;28;20482;-69
2023/11/09 11:34:54;;;;;;;2.22;1.38;;;;;;;;;;4973123;28;20439;-69
2023/11/09 11:37:24;;;;;;;2.65;1.75;;;;;;;;;;4974642;28;20043;-69
2023/11/09 11:39:50;;;;;;;1.40;1.30;;;;;;;;;;4974561;28;20034;-69
2023/11/09 11:42:16;;;;;;;3.35;1.63;;;;;;;;;;4974573;28;20015;-69
2023/11/09 11:44:49;;;;;;;2.97;1.58;;;;;;;;;;4973277;28;20034;-69
2023/11/09 11:47:14;;;;;;;4.28;1.67;;;;;;;;;;4973463;28;20038;-69
2023/11/09 11:49:41;;;;;;;2.88;1.40;;;;;;;;;;4974511;28;20069;-69
2023/11/09 11:52:09;;;;;;;1.55;1.38;;;;;;;;;;4974470;28;20395;-69
2023/11/09 11:54:41;;;;;;;1.52;1.40;;;;;;;;;;4974457;28;20030;-69
2023/11/09 11:57:06;;;;;;;1.48;1.38;;;;;;;;;;4973053;28;20089;-69
2023/11/09 11:59:35;;;;;;;2.75;1.58;;;;;;;;;;4974374;28;20031;-69
2023/11/09 12:02:00;;;;;;;2.05;1.48;;;;;;;;;;4974301;28;20042;-69
2023/11/09 12:04:26;;;;;;;2.92;2.17;;;;;;;;;;4974344;28;20034;-69
2023/11/09 12:06:53;;;;;;;5.07;1.98;;;;;;;;;;4972916;28;20122;-69
2023/11/09 12:09:19;;;;;;;2.22;1.90;;;;;;;;;;4974336;28;20493;-69
2023/11/09 12:11:45;;;;;;;2.88;1.63;;;;;;;;;;4974294;28;20031;-69
2023/11/09 12:14:11;;;;;;;1.75;1.40;;;;;;;;;;4973075;28;20022;-69
2023/11/09 12:16:38;;;;;;;1.33;1.17;;;;;;;;;;4973047;28;20046;-69
2023/11/09 12:19:11;;;;;;;1.42;1.33;;;;;;;;;;4974290;28;20035;-69
2023/11/09 12:21:36;;;;;;;1.85;1.17;;;;;;;;;;4974483;28;20121;-69
2023/11/09 12:24:03;;;;;;;1.50;1.40;;;;;;;;;;4977793;28;20061;-69
2023/11/09 12:26:32;;;;;;;1.50;1.25;;;;;;;;;;4977780;28;20045;-69
2023/11/09 12:28:58;;;;;;;1.65;1.55;;;;;;;;;;4977724;28;20030;-69
2023/11/09 12:31:27;;;;;;;1.27;1.20;;;;;;;;;;4977619;28;20097;-69
2023/11/09 12:34:22;;;;;;;1.38;1.27;;;;;;;;;;4976262;28;20437;-69
2023/11/09 12:36:51;;;;;;;1.67;1.58;;;;;;;;;;4974383;28;20137;-69
2023/11/09 12:39:28;;;;;;;1.48;1.38;;;;;;;;;;4977516;28;20026;-69
2023/11/09 12:41:57;;;;;;;2.28;1.27;;;;;;;;;;4976173;28;20034;-69
2023/11/09 12:44:29;;;;;;;2.63;1.40;;;;;;;;;;4976404;28;20114;-69
2023/11/09 12:47:12;;;;;;;2.58;1.90;;;;;;;;;;4977354;28;20034;-69
2023/11/09 12:49:39;;;;;;;1.85;1.73;;;;;;;;;;4977304;28;20078;-69
2023/11/09 12:52:06;;;;;;;3.67;1.58;;;;;;;;;;4977328;28;20041;-69
2023/11/09 12:54:32;;;;;;;2.90;2.08;;;;;;;;;;4977309;28;20078;-69
2023/11/09 12:56:58;;;;;;;2.53;1.88;;;;;;;;;;4976081;28;20014;-69
2023/11/09 12:59:29;;;;;;;2.00;1.58;;;;;;;;;;4975899;28;20035;-69
2023/11/09 13:01:56;;;;;;;1.65;1.55;;;;;;;;;;4975707;28;20367;-69
2023/11/09 13:04:28;;;;;;;2.67;1.85;;;;;;;;;;4975716;28;20027;-69
2023/11/09 13:06:54;;;;;;;1.60;1.50;;;;;;;;;;4976893;28;20478;-69
2023/11/09 13:12:26;;;;;;;1.70;1.60;;;;;;;;;;4976796;28;20027;-69
2023/11/09 13:14:41;;;;;;;1.50;1.30;;;;;;;;;;4976142;28;20063;-69
2023/11/09 13:17:09;;;;;;;2.03;1.10;;;;;;;;;;4976263;28;20070;-69
2023/11/09 13:19:35;;;;;;;1.70;1.45;;;;;;;;;;4976981;28;20030;-68
2023/11/09 13:22:00;;;;;;;1.48;1.10;;;;;;;;;;4974982;28;20019;-69
2023/11/09 13:24:28;;;;;;;1.15;1.10;;;;;;;;;;4976161;28;20030;-69
2023/11/09 13:26:59;;;;;;;1.73;1.40;;;;;;;;;;4976480;28;20031;-69
2023/11/09 13:29:25;;;;;;;1.85;1.38;;;;;;;;;;4974710;28;20446;-69
2023/11/09 13:31:56;;;;;;;1.80;1.70;;;;;;;;;;4974525;28;20032;-69
2023/11/09 13:34:42;;;;;;;7.45;3.88;;;;;;;;;;4976485;28;20042;-69
2023/11/09 13:37:08;;;;;;;3.80;3.50;;;;;;;;;;4975122;28;20031;-69
2023/11/09 13:39:49;;;;;;;8.15;4.30;;;;;;;;;;4972985;28;20034;-69
2023/11/09 13:42:20;;;;;;;4.50;2.70;;;;;;;;;;4974266;28;20049;-69
2023/11/09 13:44:48;;;;;;;3.65;2.30;;;;;;;;;;4974412;28;20129;-69
2023/11/09 13:47:14;;;;;;;7.22;3.10;;;;;;;;;;4973173;28;20109;-69
2023/11/09 13:49:40;;;;;;;1.73;1.52;;;;;;;;;;4973933;28;20035;-69
2023/11/09 13:52:31;;;;;;;3.40;1.42;;;;;;;;;;4974498;28;20035;-69
2023/11/09 13:55:01;;;;;;;7.15;2.83;;;;;;;;;;4973728;28;20441;-69
2023/11/09 13:57:27;;;;;;;9.07;3.67;;;;;;;;;;4975185;28;20038;-69
2023/11/09 13:59:59;;;;;;;2.05;1.65;;;;;;;;;;4973727;28;20359;-69
2023/11/09 14:02:33;;;;;;;2.15;1.65;;;;;;;;;;4973426;28;20430;-69
2023/11/09 14:05:08;;;;;;;5.55;2.85;;;;;;;;;;4975774;28;20023;-69
2023/11/09 14:07:34;;;;;;;4.40;2.97;;;;;;;;;;4975092;28;20102;-69
2023/11/09 14:10:00;;;;;;;2.55;2.17;;;;;;;;;;4975490;28;20443;-69
2023/11/09 14:12:37;;;;;;;7.63;3.95;;;;;;;;;;4975959;28;20026;-69
2023/11/09 14:15:29;;;;;;;7.18;3.65;;;;;;;;;;4975773;28;20034;-69
2023/11/09 14:18:11;;;;;;;10.23;5.47;;;;;;;;;;4975790;28;20034;-69
2023/11/09 14:20:41;;;;;;;15.68;7.20;;;;;;;;;;4974314;28;20034;-69
2023/11/09 14:23:07;;;;;;;20.17;10.07;;;;;;;;;;4974556;28;20034;-69
2023/11/09 14:25:33;;;;;;;30.73;16.52;;;;;;;;;;4975989;28;20082;-69
2023/11/09 14:28:00;;;;;;;38.60;18.70;;;;;;;;;;4976084;28;20034;-69
2023/11/09 14:30:31;;;;;;;30.95;15.90;;;;;;;;;;4975433;28;20031;-69
2023/11/09 14:33:00;;;;;;;19.27;10.30;;;;;;;;;;4976000;28;20042;-69
2023/11/09 14:35:27;;;;;;;14.15;8.75;;;;;;;;;;4975839;28;20031;-69
2023/11/09 14:37:52;;;;;;;11.65;7.70;;;;;;;;;;4975867;28;20026;-69
2023/11/09 14:40:21;;;;;;;8.52;5.50;;;;;;;;;;4974580;28;20063;-69
2023/11/09 14:42:50;;;;;;;5.30;4.15;;;;;;;;;;4975824;28;20066;-70
2023/11/09 14:45:18;;;;;;;5.30;3.63;;;;;;;;;;4975311;28;20481;-71
2023/11/09 14:47:44;;;;;;;3.47;3.17;;;;;;;;;;4975617;28;20046;-71
2023/11/09 14:50:18;;;;;;;19.42;7.90;;;;;;;;;;4973984;28;20039;-71
2023/11/09 14:55:19;;;;;;;37.92;14.07;;;;;;;;;;4974981;28;20445;-71
2023/11/09 14:57:45;;;;;;;54.55;21.13;;;;;;;;;;4973868;28;20046;-71
2023/11/09 15:00:10;;;;;;;63.05;25.73;;;;;;;;;;4974887;28;20450;-72
2023/11/09 15:02:38;;;;;;;57.50;22.30;;;;;;;;;;4972674;28;20093;-71
2023/11/09 15:05:11;;;;;;;44.95;20.00;;;;;;;;;;4973919;28;20031;-71
2023/11/09 15:07:45;;;;;;;56.75;18.00;;;;;;;;;;4956386;28;20038;-71
2023/11/09 15:10:12;;;;;;;39.70;18.15;;;;;;;;;;4973769;28;20031;-71
2023/11/09 15:12:38;;;;;;;34.63;16.50;;;;;;;;;;4973767;28;20010;-71
2023/11/09 15:15:04;;;;;;;24.95;13.38;;;;;;;;;;4973659;28;20038;-71
2023/11/09 15:17:30;;;;;;;40.13;18.65;;;;;;;;;;4973829;28;20031;-71
2023/11/09 15:19:55;;;;;;;41.90;19.40;;;;;;;;;;4973787;28;20037;-72
2023/11/09 15:22:24;;;;;;;42.40;21.50;;;;;;;;;;4974840;28;20042;-72
2023/11/09 15:24:49;;;;;;;40.78;19.55;;;;;;;;;;4974708;28;20035;-72
2023/11/09 15:27:17;;;;;;;57.58;32.40;;;;;;;;;;4974870;28;20042;-72
2023/11/09 15:29:43;;;;;;;44.63;22.83;;;;;;;;;;4974354;28;20066;-72
2023/11/09 15:32:15;;;;;;;38.90;20.90;;;;;;;;;;4973474;28;20039;-72
2023/11/09 15:34:44;;;;;;;43.10;23.58;;;;;;;;;;4974453;28;20035;-72
2023/11/09 15:37:15;;;;;;;37.67;19.83;;;;;;;;;;4973684;28;20038;-72
2023/11/09 15:39:40;;;;;;;39.53;19.13;;;;;;;;;;4972684;28;20102;-72
2023/11/09 15:42:07;;;;;;;32.63;17.73;;;;;;;;;;4974171;28;20117;-72
2023/11/09 15:44:33;;;;;;;31.27;15.45;;;;;;;;;;4973718;28;20368;-72
2023/11/09 15:47:02;;;;;;;30.63;15.00;;;;;;;;;;4974226;28;20078;-72
2023/11/09 15:49:30;;;;;;;24.88;12.40;;;;;;;;;;4973667;28;20035;-72
2023/11/09 15:51:56;;;;;;;25.25;14.35;;;;;;;;;;4973113;28;20058;-72
2023/11/09 15:54:22;;;;;;;35.83;18.42;;;;;;;;;;4955925;28;20073;-72